MDL447 WALL-WIDD
Flight info
| Callsign | MDL447 |
|---|---|
| Flight time | 1h 56m |
| Altitude | 32000 |
| Route | OSRUT L504 OBDOS T22 UGEBO |
| Aircraft | A320/M-SDE3FGHIRWY/LB1 |
Departure
| Time | 2026-04-19 16:07 |
|---|---|
| Airport | Sultan Aji Muhammad Sulaiman Sepinggan International Airport (WALL) |
Arrival
| Time | 2026-04-19 18:03 |
|---|---|
| Airport | Hang Nadim International Airport (WIDD) |
| Time | Latitude | Longitude | Altitude | Speed | Heading |
|---|---|---|---|---|---|
| 2026-04-19 15:57 | -1.26347 | 116.89836 | 23 ft | 0 kts | 337° |
| 2026-04-19 16:00 | -1.26353 | 116.89839 | 23 ft | 2 kts | 337° |
| 2026-04-19 16:00 | -1.26367 | 116.89844 | 23 ft | 3 kts | 337° |
| 2026-04-19 16:00 | -1.26385 | 116.89850 | 23 ft | 3 kts | 354° |
| 2026-04-19 16:01 | -1.26405 | 116.89849 | 23 ft | 3 kts | 27° |
| 2026-04-19 16:01 | -1.26417 | 116.89834 | 23 ft | 2 kts | 66° |
| 2026-04-19 16:02 | -1.26416 | 116.89838 | 23 ft | 3 kts | 66° |
| 2026-04-19 16:02 | -1.26399 | 116.89876 | 23 ft | 10 kts | 67° |
| 2026-04-19 16:02 | -1.26364 | 116.89962 | 23 ft | 16 kts | 68° |
| 2026-04-19 16:02 | -1.26397 | 116.90056 | 23 ft | 16 kts | 103° |
| 2026-04-19 16:03 | -1.26363 | 116.90166 | 23 ft | 18 kts | 67° |
| 2026-04-19 16:03 | -1.26311 | 116.90288 | 23 ft | 20 kts | 67° |
| 2026-04-19 16:03 | -1.26300 | 116.90410 | 23 ft | 16 kts | 122° |
| 2026-04-19 16:03 | -1.26374 | 116.90446 | 23 ft | 6 kts | 188° |
| 2026-04-19 16:04 | -1.26411 | 116.90420 | 23 ft | 8 kts | 227° |
| 2026-04-19 16:04 | -1.26420 | 116.90406 | 23 ft | 0 kts | 247° |
| 2026-04-19 16:05 | -1.26420 | 116.90405 | 23 ft | 0 kts | 247° |
| 2026-04-19 16:06 | -1.26433 | 116.90374 | 23 ft | 25 kts | 248° |
| 2026-04-19 16:06 | -1.26592 | 116.89999 | 23 ft | 92 kts | 247° |
| 2026-04-19 16:06 | -1.26919 | 116.89219 | 24 ft | 150 kts | 247° |
| 2026-04-19 16:06 | -1.27349 | 116.88196 | 479 ft | 162 kts | 246° |
| 2026-04-19 16:07 | -1.27786 | 116.87162 | 1146 ft | 165 kts | 246° |
| 2026-04-19 16:07 | -1.28246 | 116.86088 | 1796 ft | 168 kts | 246° |
| 2026-04-19 16:07 | -1.28712 | 116.84998 | 2252 ft | 178 kts | 247° |
| 2026-04-19 16:07 | -1.28948 | 116.83731 | 2533 ft | 195 kts | 268° |
| 2026-04-19 16:08 | -1.28851 | 116.82416 | 2874 ft | 208 kts | 275° |
| 2026-04-19 16:08 | -1.28639 | 116.80911 | 3093 ft | 234 kts | 277° |
| 2026-04-19 16:08 | -1.28377 | 116.79217 | 3467 ft | 256 kts | 278° |
| 2026-04-19 16:08 | -1.28100 | 116.77432 | 4118 ft | 265 kts | 277° |
| 2026-04-19 16:09 | -1.27833 | 116.75613 | 4961 ft | 266 kts | 277° |
| 2026-04-19 16:09 | -1.27577 | 116.73793 | 5880 ft | 264 kts | 276° |
| 2026-04-19 16:09 | -1.27325 | 116.71969 | 6686 ft | 268 kts | 276° |
| 2026-04-19 16:09 | -1.27073 | 116.70111 | 7432 ft | 272 kts | 276° |
| 2026-04-19 16:10 | -1.26837 | 116.68238 | 8215 ft | 275 kts | 275° |
| 2026-04-19 16:10 | -1.26607 | 116.66329 | 8985 ft | 278 kts | 275° |
| 2026-04-19 16:10 | -1.26420 | 116.64772 | 9607 ft | 282 kts | 275° |
| 2026-04-19 16:10 | -1.26173 | 116.62832 | 10317 ft | 287 kts | 276° |
| 2026-04-19 16:11 | -1.25907 | 116.60768 | 10579 ft | 310 kts | 276° |
| 2026-04-19 16:11 | -1.25629 | 116.58563 | 10883 ft | 331 kts | 277° |
| 2026-04-19 16:11 | -1.25338 | 116.56246 | 11448 ft | 344 kts | 277° |
| 2026-04-19 16:11 | -1.25040 | 116.53865 | 12301 ft | 347 kts | 277° |
| 2026-04-19 16:12 | -1.24740 | 116.51474 | 13235 ft | 349 kts | 277° |
| 2026-04-19 16:12 | -1.24438 | 116.49061 | 14100 ft | 352 kts | 277° |
| 2026-04-19 16:12 | -1.24134 | 116.46629 | 14882 ft | 356 kts | 277° |
| 2026-04-19 16:12 | -1.23825 | 116.44157 | 15593 ft | 363 kts | 277° |
| 2026-04-19 16:13 | -1.23521 | 116.41640 | 16227 ft | 371 kts | 277° |
| 2026-04-19 16:13 | -1.23218 | 116.39058 | 16930 ft | 376 kts | 277° |
| 2026-04-19 16:13 | -1.22914 | 116.36455 | 17695 ft | 380 kts | 277° |
| 2026-04-19 16:13 | -1.22591 | 116.33841 | 18459 ft | 383 kts | 278° |
| 2026-04-19 16:14 | -1.22253 | 116.31188 | 19179 ft | 387 kts | 277° |
| 2026-04-19 16:14 | -1.21927 | 116.28514 | 19859 ft | 391 kts | 277° |
| 2026-04-19 16:14 | -1.21597 | 116.25810 | 20535 ft | 395 kts | 277° |
| 2026-04-19 16:14 | -1.21257 | 116.23095 | 21193 ft | 399 kts | 278° |
| 2026-04-19 16:15 | -1.20913 | 116.20329 | 21834 ft | 403 kts | 278° |
| 2026-04-19 16:15 | -1.20571 | 116.17535 | 22485 ft | 407 kts | 278° |
| 2026-04-19 16:15 | -1.20230 | 116.14726 | 23117 ft | 410 kts | 278° |
| 2026-04-19 16:15 | -1.19887 | 116.11890 | 23707 ft | 415 kts | 278° |
| 2026-04-19 16:16 | -1.19536 | 116.09032 | 24284 ft | 419 kts | 278° |
| 2026-04-19 16:16 | -1.19177 | 116.06132 | 24862 ft | 422 kts | 278° |
| 2026-04-19 16:16 | -1.18820 | 116.03212 | 25437 ft | 426 kts | 278° |
| 2026-04-19 16:16 | -1.18463 | 116.00282 | 25985 ft | 430 kts | 278° |
| 2026-04-19 16:17 | -1.18101 | 115.97300 | 26488 ft | 434 kts | 278° |
| 2026-04-19 16:17 | -1.17736 | 115.94302 | 26968 ft | 438 kts | 278° |
| 2026-04-19 16:17 | -1.17367 | 115.91277 | 27421 ft | 442 kts | 277° |
| 2026-04-19 16:17 | -1.16984 | 115.88215 | 27741 ft | 449 kts | 278° |
| 2026-04-19 16:18 | -1.16587 | 115.85112 | 28026 ft | 456 kts | 278° |
| 2026-04-19 16:18 | -1.16181 | 115.81952 | 28459 ft | 459 kts | 277° |
| 2026-04-19 16:18 | -1.15794 | 115.78808 | 29033 ft | 458 kts | 277° |
| 2026-04-19 16:18 | -1.15469 | 115.76084 | 29522 ft | 457 kts | 277° |
| 2026-04-19 16:19 | -1.15159 | 115.73441 | 29901 ft | 459 kts | 277° |
| 2026-04-19 16:19 | -1.14788 | 115.70259 | 30243 ft | 463 kts | 277° |
| 2026-04-19 16:19 | -1.14419 | 115.67074 | 30562 ft | 467 kts | 277° |
| 2026-04-19 16:19 | -1.14038 | 115.63850 | 30958 ft | 468 kts | 277° |
| 2026-04-19 16:20 | -1.13640 | 115.60637 | 31448 ft | 467 kts | 277° |
| 2026-04-19 16:20 | -1.13231 | 115.57429 | 31789 ft | 464 kts | 278° |
| 2026-04-19 16:20 | -1.12821 | 115.54266 | 31892 ft | 462 kts | 278° |
| 2026-04-19 16:21 | -1.11980 | 115.47760 | 31912 ft | 481 kts | 277° |
| 2026-04-19 16:21 | -1.11175 | 115.41094 | 31906 ft | 485 kts | 277° |
| 2026-04-19 16:22 | -1.10382 | 115.34424 | 31910 ft | 485 kts | 277° |
| 2026-04-19 16:22 | -1.09539 | 115.27780 | 31903 ft | 484 kts | 278° |
| 2026-04-19 16:23 | -1.08706 | 115.21121 | 31904 ft | 484 kts | 277° |
| 2026-04-19 16:23 | -1.07901 | 115.14448 | 31904 ft | 484 kts | 277° |
| 2026-04-19 16:24 | -1.07064 | 115.07800 | 31904 ft | 484 kts | 277° |
| 2026-04-19 16:24 | -1.06246 | 115.01125 | 31904 ft | 484 kts | 277° |
| 2026-04-19 16:25 | -1.05421 | 114.94477 | 31904 ft | 484 kts | 277° |
| 2026-04-19 16:25 | -1.04600 | 114.87805 | 31904 ft | 484 kts | 277° |
| 2026-04-19 16:26 | -1.03774 | 114.81157 | 31904 ft | 484 kts | 277° |
| 2026-04-19 16:26 | -1.02891 | 114.74502 | 31904 ft | 484 kts | 279° |
| 2026-04-19 16:27 | -1.01620 | 114.67906 | 31905 ft | 484 kts | 282° |
| 2026-04-19 16:27 | -1.00168 | 114.61359 | 31904 ft | 484 kts | 283° |
| 2026-04-19 16:28 | -0.98748 | 114.54804 | 31904 ft | 484 kts | 282° |
| 2026-04-19 16:28 | -0.97389 | 114.48247 | 31904 ft | 484 kts | 282° |
| 2026-04-19 16:29 | -0.96081 | 114.41668 | 31904 ft | 484 kts | 282° |
| 2026-04-19 16:29 | -0.94752 | 114.35083 | 31904 ft | 484 kts | 282° |
| 2026-04-19 16:30 | -0.93418 | 114.28516 | 31911 ft | 485 kts | 282° |
| 2026-04-19 16:30 | -0.92088 | 114.21942 | 31903 ft | 484 kts | 282° |
| 2026-04-19 16:31 | -0.90765 | 114.15366 | 31906 ft | 484 kts | 282° |
| 2026-04-19 16:31 | -0.89433 | 114.08780 | 31903 ft | 484 kts | 282° |
| 2026-04-19 16:32 | -0.88161 | 114.02206 | 31904 ft | 484 kts | 281° |
| 2026-04-19 16:32 | -0.86865 | 113.95609 | 31904 ft | 484 kts | 282° |
| 2026-04-19 16:33 | -0.85545 | 113.89035 | 31904 ft | 484 kts | 282° |
| 2026-04-19 16:33 | -0.84218 | 113.82466 | 31904 ft | 484 kts | 282° |
| 2026-04-19 16:34 | -0.82887 | 113.75890 | 31904 ft | 484 kts | 282° |
| 2026-04-19 16:34 | -0.81555 | 113.69305 | 31904 ft | 484 kts | 282° |
| 2026-04-19 16:35 | -0.80225 | 113.62727 | 31904 ft | 484 kts | 282° |
| 2026-04-19 16:35 | -0.78898 | 113.56162 | 31904 ft | 484 kts | 282° |
| 2026-04-19 16:36 | -0.77570 | 113.49586 | 31904 ft | 484 kts | 282° |
| 2026-04-19 16:36 | -0.76241 | 113.43001 | 31904 ft | 484 kts | 282° |
| 2026-04-19 16:37 | -0.74915 | 113.36432 | 31904 ft | 484 kts | 282° |
| 2026-04-19 16:37 | -0.73562 | 113.29849 | 31904 ft | 484 kts | 282° |
| 2026-04-19 16:38 | -0.72196 | 113.23281 | 31904 ft | 484 kts | 282° |
| 2026-04-19 16:38 | -0.70891 | 113.16735 | 31904 ft | 482 kts | 282° |
| 2026-04-19 16:39 | -0.69629 | 113.10166 | 31904 ft | 483 kts | 281° |
| 2026-04-19 16:39 | -0.68517 | 113.03552 | 31907 ft | 487 kts | 279° |
| 2026-04-19 16:40 | -0.67482 | 112.96882 | 31903 ft | 487 kts | 279° |
| 2026-04-19 16:40 | -0.66423 | 112.90218 | 31904 ft | 487 kts | 279° |
| 2026-04-19 16:41 | -0.65346 | 112.83548 | 31904 ft | 487 kts | 280° |
| 2026-04-19 16:41 | -0.64231 | 112.76905 | 31904 ft | 487 kts | 280° |
| 2026-04-19 16:42 | -0.63140 | 112.70251 | 31904 ft | 487 kts | 280° |
| 2026-04-19 16:42 | -0.62029 | 112.63582 | 31904 ft | 487 kts | 280° |
| 2026-04-19 16:43 | -0.60926 | 112.56936 | 31904 ft | 487 kts | 280° |
| 2026-04-19 16:43 | -0.59828 | 112.50268 | 31904 ft | 487 kts | 280° |
| 2026-04-19 16:44 | -0.58719 | 112.43613 | 31904 ft | 487 kts | 280° |
| 2026-04-19 16:44 | -0.57585 | 112.36974 | 31904 ft | 487 kts | 280° |
| 2026-04-19 16:45 | -0.56487 | 112.30305 | 31904 ft | 487 kts | 280° |
| 2026-04-19 16:45 | -0.55412 | 112.23659 | 31903 ft | 487 kts | 279° |
| 2026-04-19 16:46 | -0.54326 | 112.17146 | 31904 ft | 487 kts | 280° |
| 2026-04-19 16:46 | -0.53373 | 112.11374 | 31904 ft | 487 kts | 280° |
| 2026-04-19 16:47 | -0.52264 | 112.04709 | 31904 ft | 487 kts | 280° |
| 2026-04-19 16:47 | -0.51171 | 111.98068 | 31904 ft | 486 kts | 280° |
| 2026-04-19 16:48 | -0.50063 | 111.91405 | 31904 ft | 486 kts | 280° |
| 2026-04-19 16:48 | -0.48958 | 111.84752 | 31904 ft | 486 kts | 280° |
| 2026-04-19 16:49 | -0.47859 | 111.78122 | 31904 ft | 486 kts | 280° |
| 2026-04-19 16:49 | -0.46758 | 111.71462 | 31904 ft | 486 kts | 280° |
| 2026-04-19 16:50 | -0.45638 | 111.64814 | 31904 ft | 486 kts | 280° |
| 2026-04-19 16:50 | -0.44554 | 111.58159 | 31904 ft | 486 kts | 280° |
| 2026-04-19 16:51 | -0.43438 | 111.51500 | 31904 ft | 486 kts | 280° |
| 2026-04-19 16:51 | -0.42344 | 111.44861 | 31904 ft | 486 kts | 280° |
| 2026-04-19 16:52 | -0.41238 | 111.38196 | 31904 ft | 486 kts | 280° |
| 2026-04-19 16:52 | -0.40134 | 111.31568 | 31904 ft | 486 kts | 280° |
| 2026-04-19 16:53 | -0.39026 | 111.24896 | 31904 ft | 486 kts | 280° |
| 2026-04-19 16:53 | -0.37927 | 111.18257 | 31904 ft | 486 kts | 280° |
| 2026-04-19 16:54 | -0.36827 | 111.11610 | 31904 ft | 486 kts | 280° |
| 2026-04-19 16:54 | -0.35720 | 111.04947 | 31904 ft | 486 kts | 280° |
| 2026-04-19 16:55 | -0.34615 | 110.98298 | 31904 ft | 486 kts | 280° |
| 2026-04-19 16:55 | -0.32947 | 110.88324 | 31904 ft | 486 kts | 280° |
| 2026-04-19 16:56 | -0.31860 | 110.81671 | 31904 ft | 486 kts | 280° |
| 2026-04-19 16:56 | -0.30747 | 110.75029 | 31904 ft | 486 kts | 280° |
| 2026-04-19 16:57 | -0.29645 | 110.68389 | 31904 ft | 486 kts | 280° |
| 2026-04-19 16:57 | -0.28545 | 110.61740 | 31907 ft | 487 kts | 280° |
| 2026-04-19 16:58 | -0.27439 | 110.55075 | 31903 ft | 486 kts | 280° |
| 2026-04-19 16:58 | -0.26334 | 110.48438 | 31904 ft | 486 kts | 280° |
| 2026-04-19 16:59 | -0.25227 | 110.41768 | 31904 ft | 489 kts | 280° |
| 2026-04-19 16:59 | -0.24103 | 110.35078 | 31904 ft | 488 kts | 280° |
| 2026-04-19 17:00 | -0.22978 | 110.28406 | 31904 ft | 488 kts | 281° |
| 2026-04-19 17:00 | -0.21858 | 110.21732 | 31904 ft | 488 kts | 280° |
| 2026-04-19 17:01 | -0.20801 | 110.15059 | 31904 ft | 488 kts | 280° |
| 2026-04-19 17:01 | -0.19707 | 110.08361 | 31903 ft | 488 kts | 280° |
| 2026-04-19 17:02 | -0.18594 | 110.01686 | 31906 ft | 489 kts | 280° |
| 2026-04-19 17:02 | -0.17474 | 109.95006 | 31904 ft | 488 kts | 280° |
| 2026-04-19 17:03 | -0.16356 | 109.88345 | 31904 ft | 489 kts | 280° |
| 2026-04-19 17:03 | -0.15236 | 109.81666 | 31904 ft | 489 kts | 280° |
| 2026-04-19 17:04 | -0.14116 | 109.74986 | 31904 ft | 489 kts | 280° |
| 2026-04-19 17:04 | -0.12999 | 109.68315 | 31904 ft | 489 kts | 280° |
| 2026-04-19 17:05 | -0.11881 | 109.61636 | 31905 ft | 489 kts | 280° |
| 2026-04-19 17:05 | -0.10764 | 109.54955 | 31904 ft | 489 kts | 280° |
| 2026-04-19 17:06 | -0.09654 | 109.48264 | 31904 ft | 489 kts | 280° |
| 2026-04-19 17:06 | -0.08548 | 109.41584 | 31904 ft | 489 kts | 280° |
| 2026-04-19 17:07 | -0.07460 | 109.34903 | 31904 ft | 488 kts | 281° |
| 2026-04-19 17:07 | -0.06122 | 109.28281 | 31904 ft | 488 kts | 283° |
| 2026-04-19 17:08 | -0.04635 | 109.21673 | 31904 ft | 488 kts | 283° |
| 2026-04-19 17:08 | -0.03166 | 109.15069 | 31903 ft | 488 kts | 283° |
| 2026-04-19 17:09 | -0.01769 | 109.08461 | 31904 ft | 488 kts | 283° |
| 2026-04-19 17:09 | -0.00393 | 109.01824 | 31904 ft | 488 kts | 283° |
| 2026-04-19 17:10 | 0.00995 | 108.95214 | 31904 ft | 488 kts | 282° |
| 2026-04-19 17:10 | 0.02350 | 108.88582 | 31904 ft | 488 kts | 282° |
| 2026-04-19 17:11 | 0.03694 | 108.81942 | 31904 ft | 488 kts | 282° |
| 2026-04-19 17:11 | 0.05033 | 108.75308 | 31904 ft | 488 kts | 282° |
| 2026-04-19 17:12 | 0.06369 | 108.68674 | 31904 ft | 488 kts | 282° |
| 2026-04-19 17:12 | 0.07702 | 108.62052 | 31904 ft | 488 kts | 282° |
| 2026-04-19 17:13 | 0.09036 | 108.55417 | 31904 ft | 488 kts | 282° |
| 2026-04-19 17:13 | 0.10370 | 108.48785 | 31904 ft | 488 kts | 282° |
| 2026-04-19 17:14 | 0.11702 | 108.42153 | 31904 ft | 488 kts | 282° |
| 2026-04-19 17:14 | 0.12995 | 108.35496 | 31904 ft | 489 kts | 281° |
| 2026-04-19 17:15 | 0.13942 | 108.28788 | 31904 ft | 489 kts | 278° |
| 2026-04-19 17:15 | 0.14703 | 108.22058 | 31904 ft | 489 kts | 277° |
| 2026-04-19 17:16 | 0.15491 | 108.15328 | 31904 ft | 489 kts | 278° |
| 2026-04-19 17:16 | 0.16336 | 108.08602 | 31903 ft | 489 kts | 278° |
| 2026-04-19 17:17 | 0.17233 | 108.01907 | 31904 ft | 489 kts | 278° |
| 2026-04-19 17:17 | 0.18114 | 107.95172 | 31903 ft | 489 kts | 278° |
| 2026-04-19 17:18 | 0.18983 | 107.88464 | 31903 ft | 489 kts | 278° |
| 2026-04-19 17:18 | 0.19871 | 107.81748 | 31903 ft | 489 kts | 278° |
| 2026-04-19 17:19 | 0.20748 | 107.75011 | 31898 ft | 489 kts | 278° |
| 2026-04-19 17:19 | 0.21633 | 107.68302 | 31899 ft | 489 kts | 278° |
| 2026-04-19 17:20 | 0.22549 | 107.61589 | 31898 ft | 489 kts | 279° |
| 2026-04-19 17:20 | 0.23445 | 107.54881 | 31897 ft | 489 kts | 278° |
| 2026-04-19 17:21 | 0.24314 | 107.48166 | 31897 ft | 489 kts | 278° |
| 2026-04-19 17:21 | 0.25178 | 107.41435 | 31897 ft | 489 kts | 278° |
| 2026-04-19 17:22 | 0.26035 | 107.34728 | 31897 ft | 489 kts | 278° |
| 2026-04-19 17:22 | 0.26922 | 107.28007 | 31896 ft | 489 kts | 278° |
| 2026-04-19 17:23 | 0.27799 | 107.21280 | 31896 ft | 489 kts | 278° |
| 2026-04-19 17:23 | 0.28681 | 107.14577 | 31896 ft | 489 kts | 278° |
| 2026-04-19 17:24 | 0.29553 | 107.07858 | 31892 ft | 489 kts | 278° |
| 2026-04-19 17:24 | 0.30441 | 107.01136 | 31887 ft | 489 kts | 278° |
| 2026-04-19 17:25 | 0.30917 | 106.97473 | 31886 ft | 489 kts | 278° |
| 2026-04-19 17:25 | 0.32176 | 106.88078 | 31886 ft | 491 kts | 278° |
| 2026-04-19 17:26 | 0.33079 | 106.81327 | 31878 ft | 491 kts | 277° |
| 2026-04-19 17:26 | 0.33946 | 106.74580 | 31876 ft | 491 kts | 278° |
| 2026-04-19 17:27 | 0.34841 | 106.67841 | 31876 ft | 491 kts | 277° |
| 2026-04-19 17:27 | 0.35719 | 106.61112 | 31875 ft | 491 kts | 278° |
| 2026-04-19 17:28 | 0.36601 | 106.54355 | 31875 ft | 491 kts | 278° |
| 2026-04-19 17:28 | 0.37486 | 106.47614 | 31875 ft | 491 kts | 277° |
| 2026-04-19 17:29 | 0.38373 | 106.40886 | 31874 ft | 491 kts | 277° |
| 2026-04-19 17:29 | 0.39255 | 106.34142 | 31876 ft | 491 kts | 278° |
| 2026-04-19 17:30 | 0.40137 | 106.27401 | 31873 ft | 490 kts | 278° |
| 2026-04-19 17:30 | 0.41020 | 106.20661 | 31874 ft | 491 kts | 277° |
| 2026-04-19 17:31 | 0.41889 | 106.13928 | 31875 ft | 491 kts | 277° |
| 2026-04-19 17:31 | 0.42788 | 106.07162 | 31875 ft | 491 kts | 278° |
| 2026-04-19 17:32 | 0.43667 | 106.00437 | 31875 ft | 491 kts | 277° |
| 2026-04-19 17:32 | 0.44555 | 105.93710 | 31875 ft | 491 kts | 278° |
| 2026-04-19 17:33 | 0.44992 | 105.90345 | 31870 ft | 477 kts | 277° |
| 2026-04-19 17:33 | 0.45408 | 105.87151 | 31700 ft | 458 kts | 278° |
| 2026-04-19 17:33 | 0.45824 | 105.84033 | 31228 ft | 448 kts | 278° |
| 2026-04-19 17:33 | 0.46224 | 105.80990 | 30729 ft | 439 kts | 277° |
| 2026-04-19 17:34 | 0.46611 | 105.77991 | 30225 ft | 430 kts | 278° |
| 2026-04-19 17:34 | 0.46999 | 105.75068 | 29723 ft | 422 kts | 278° |
| 2026-04-19 17:34 | 0.47380 | 105.72196 | 29221 ft | 415 kts | 278° |
| 2026-04-19 17:34 | 0.47746 | 105.69371 | 28719 ft | 408 kts | 277° |
| 2026-04-19 17:35 | 0.48111 | 105.66587 | 28216 ft | 401 kts | 278° |
| 2026-04-19 17:35 | 0.48476 | 105.63842 | 27713 ft | 395 kts | 278° |
| 2026-04-19 17:35 | 0.48825 | 105.61156 | 27213 ft | 390 kts | 277° |
| 2026-04-19 17:35 | 0.49168 | 105.58493 | 26711 ft | 385 kts | 277° |
| 2026-04-19 17:36 | 0.49505 | 105.55847 | 26210 ft | 383 kts | 277° |
| 2026-04-19 17:36 | 0.49839 | 105.53223 | 25710 ft | 380 kts | 277° |
| 2026-04-19 17:36 | 0.50171 | 105.50627 | 25213 ft | 378 kts | 277° |
| 2026-04-19 17:36 | 0.50504 | 105.48032 | 24723 ft | 376 kts | 277° |
| 2026-04-19 17:37 | 0.50834 | 105.45460 | 24253 ft | 379 kts | 277° |
| 2026-04-19 17:37 | 0.51172 | 105.42832 | 23804 ft | 383 kts | 277° |
| 2026-04-19 17:37 | 0.51530 | 105.40204 | 23355 ft | 380 kts | 278° |
| 2026-04-19 17:37 | 0.51888 | 105.37606 | 22905 ft | 377 kts | 277° |
| 2026-04-19 17:38 | 0.52229 | 105.35037 | 22457 ft | 374 kts | 277° |
| 2026-04-19 17:38 | 0.52564 | 105.32464 | 22005 ft | 371 kts | 277° |
| 2026-04-19 17:38 | 0.52891 | 105.29932 | 21564 ft | 369 kts | 277° |
| 2026-04-19 17:38 | 0.53215 | 105.27411 | 21121 ft | 366 kts | 277° |
| 2026-04-19 17:39 | 0.53538 | 105.24899 | 20672 ft | 363 kts | 277° |
| 2026-04-19 17:39 | 0.53864 | 105.22426 | 20224 ft | 358 kts | 276° |
| 2026-04-19 17:39 | 0.54183 | 105.19991 | 19773 ft | 351 kts | 276° |
| 2026-04-19 17:39 | 0.54489 | 105.17586 | 19319 ft | 346 kts | 276° |
| 2026-04-19 17:40 | 0.54797 | 105.15224 | 18866 ft | 340 kts | 276° |
| 2026-04-19 17:40 | 0.55105 | 105.12898 | 18413 ft | 336 kts | 276° |
| 2026-04-19 17:40 | 0.55400 | 105.10605 | 17962 ft | 331 kts | 276° |
| 2026-04-19 17:40 | 0.55694 | 105.08340 | 17510 ft | 327 kts | 276° |
| 2026-04-19 17:41 | 0.55990 | 105.06107 | 17060 ft | 324 kts | 276° |
| 2026-04-19 17:41 | 0.56277 | 105.03903 | 16612 ft | 321 kts | 276° |
| 2026-04-19 17:41 | 0.56561 | 105.01704 | 16161 ft | 318 kts | 276° |
| 2026-04-19 17:41 | 0.56847 | 104.99543 | 15714 ft | 315 kts | 276° |
| 2026-04-19 17:42 | 0.57134 | 104.97369 | 15263 ft | 313 kts | 276° |
| 2026-04-19 17:42 | 0.57413 | 104.95226 | 14815 ft | 312 kts | 277° |
| 2026-04-19 17:42 | 0.57694 | 104.93092 | 14367 ft | 310 kts | 277° |
| 2026-04-19 17:42 | 0.57965 | 104.90984 | 14093 ft | 302 kts | 277° |
| 2026-04-19 17:43 | 0.58186 | 104.88882 | 14017 ft | 306 kts | 273° |
| 2026-04-19 17:43 | 0.58211 | 104.86755 | 14012 ft | 308 kts | 269° |
| 2026-04-19 17:43 | 0.58124 | 104.84612 | 14001 ft | 309 kts | 266° |
| 2026-04-19 17:43 | 0.57991 | 104.82486 | 14010 ft | 309 kts | 266° |
| 2026-04-19 17:44 | 0.57847 | 104.80352 | 13997 ft | 309 kts | 266° |
| 2026-04-19 17:44 | 0.57703 | 104.78220 | 13996 ft | 308 kts | 266° |
| 2026-04-19 17:44 | 0.57576 | 104.76082 | 14000 ft | 309 kts | 266° |
| 2026-04-19 17:44 | 0.57456 | 104.73940 | 13997 ft | 304 kts | 267° |
| 2026-04-19 17:45 | 0.57347 | 104.71870 | 13688 ft | 298 kts | 267° |
| 2026-04-19 17:45 | 0.57257 | 104.69806 | 13190 ft | 300 kts | 268° |
| 2026-04-19 17:45 | 0.57176 | 104.67725 | 12694 ft | 301 kts | 268° |
| 2026-04-19 17:45 | 0.57098 | 104.65640 | 12198 ft | 302 kts | 268° |
| 2026-04-19 17:46 | 0.57018 | 104.63546 | 11701 ft | 302 kts | 268° |
| 2026-04-19 17:46 | 0.56925 | 104.61455 | 11205 ft | 303 kts | 267° |
| 2026-04-19 17:46 | 0.56835 | 104.59355 | 10708 ft | 303 kts | 268° |
| 2026-04-19 17:46 | 0.56753 | 104.57256 | 10214 ft | 303 kts | 268° |
| 2026-04-19 17:47 | 0.56667 | 104.55153 | 9714 ft | 303 kts | 268° |
| 2026-04-19 17:47 | 0.56570 | 104.53074 | 9213 ft | 300 kts | 268° |
| 2026-04-19 17:47 | 0.56480 | 104.50998 | 8711 ft | 298 kts | 268° |
| 2026-04-19 17:47 | 0.56389 | 104.48940 | 8213 ft | 297 kts | 268° |
| 2026-04-19 17:48 | 0.56306 | 104.46887 | 7714 ft | 295 kts | 269° |
| 2026-04-19 17:48 | 0.56224 | 104.44839 | 7216 ft | 294 kts | 268° |
| 2026-04-19 17:48 | 0.56133 | 104.42815 | 6737 ft | 293 kts | 268° |
| 2026-04-19 17:48 | 0.56039 | 104.40783 | 6316 ft | 291 kts | 268° |
| 2026-04-19 17:49 | 0.55945 | 104.38797 | 5940 ft | 286 kts | 268° |
| 2026-04-19 17:49 | 0.55856 | 104.36828 | 5561 ft | 281 kts | 269° |
| 2026-04-19 17:49 | 0.56181 | 104.34971 | 5451 ft | 264 kts | 294° |
| 2026-04-19 17:49 | 0.57100 | 104.33444 | 5380 ft | 253 kts | 308° |
| 2026-04-19 17:50 | 0.58237 | 104.32154 | 5230 ft | 247 kts | 314° |
| 2026-04-19 17:50 | 0.59426 | 104.30951 | 5106 ft | 239 kts | 316° |
| 2026-04-19 17:50 | 0.60590 | 104.29814 | 5014 ft | 229 kts | 316° |
| 2026-04-19 17:50 | 0.61725 | 104.28719 | 4802 ft | 227 kts | 317° |
| 2026-04-19 17:51 | 0.62857 | 104.27626 | 4517 ft | 229 kts | 316° |
| 2026-04-19 17:51 | 0.64002 | 104.26502 | 4219 ft | 233 kts | 316° |
| 2026-04-19 17:51 | 0.65165 | 104.25360 | 3936 ft | 235 kts | 316° |
| 2026-04-19 17:51 | 0.66341 | 104.24206 | 3625 ft | 241 kts | 316° |
| 2026-04-19 17:52 | 0.67533 | 104.23037 | 3283 ft | 240 kts | 316° |
| 2026-04-19 17:52 | 0.68714 | 104.21879 | 3099 ft | 235 kts | 316° |
| 2026-04-19 17:52 | 0.69856 | 104.20761 | 3011 ft | 226 kts | 316° |
| 2026-04-19 17:52 | 0.70940 | 104.19698 | 2988 ft | 215 kts | 316° |
| 2026-04-19 17:53 | 0.71976 | 104.18681 | 3000 ft | 201 kts | 316° |
| 2026-04-19 17:53 | 0.72927 | 104.17749 | 3042 ft | 189 kts | 316° |
| 2026-04-19 17:53 | 0.73862 | 104.16831 | 3002 ft | 189 kts | 316° |
| 2026-04-19 17:53 | 0.74806 | 104.15909 | 3004 ft | 191 kts | 316° |
| 2026-04-19 17:54 | 0.75750 | 104.14990 | 3001 ft | 191 kts | 316° |
| 2026-04-19 17:54 | 0.76701 | 104.14059 | 3000 ft | 191 kts | 315° |
| 2026-04-19 17:54 | 0.77637 | 104.13123 | 3000 ft | 191 kts | 315° |
| 2026-04-19 17:54 | 0.78612 | 104.12241 | 2985 ft | 187 kts | 321° |
| 2026-04-19 17:55 | 0.79654 | 104.11486 | 2748 ft | 184 kts | 325° |
| 2026-04-19 17:55 | 0.80708 | 104.10776 | 2501 ft | 181 kts | 327° |
| 2026-04-19 17:55 | 0.81747 | 104.10089 | 2368 ft | 181 kts | 328° |
| 2026-04-19 17:55 | 0.82814 | 104.09387 | 2324 ft | 186 kts | 329° |
| 2026-04-19 17:56 | 0.83902 | 104.08672 | 2307 ft | 187 kts | 328° |
| 2026-04-19 17:56 | 0.84981 | 104.07949 | 2313 ft | 189 kts | 328° |
| 2026-04-19 17:56 | 0.86063 | 104.07215 | 2299 ft | 189 kts | 328° |
| 2026-04-19 17:56 | 0.87141 | 104.06482 | 2284 ft | 187 kts | 328° |
| 2026-04-19 17:57 | 0.88216 | 104.05758 | 2301 ft | 189 kts | 328° |
| 2026-04-19 17:57 | 0.89316 | 104.05021 | 2323 ft | 190 kts | 328° |
| 2026-04-19 17:57 | 0.90399 | 104.04295 | 2275 ft | 187 kts | 328° |
| 2026-04-19 17:57 | 0.91480 | 104.03571 | 2303 ft | 187 kts | 328° |
| 2026-04-19 17:58 | 0.92559 | 104.02846 | 2302 ft | 187 kts | 328° |
| 2026-04-19 17:58 | 0.93637 | 104.02119 | 2313 ft | 188 kts | 328° |
| 2026-04-19 17:58 | 0.94756 | 104.01439 | 2301 ft | 187 kts | 333° |
| 2026-04-19 17:58 | 0.95891 | 104.00836 | 2294 ft | 182 kts | 334° |
| 2026-04-19 17:59 | 0.97020 | 104.00315 | 2277 ft | 177 kts | 345° |
| 2026-04-19 17:59 | 0.98187 | 104.00428 | 2284 ft | 170 kts | 21° |
| 2026-04-19 17:59 | 0.99225 | 104.01009 | 2354 ft | 174 kts | 33° |
| 2026-04-19 17:59 | 1.00199 | 104.01707 | 2304 ft | 172 kts | 37° |
| 2026-04-19 18:00 | 1.01134 | 104.02427 | 2296 ft | 167 kts | 38° |
| 2026-04-19 18:00 | 1.02009 | 104.03071 | 2315 ft | 146 kts | 37° |
| 2026-04-19 18:00 | 1.02794 | 104.03668 | 2213 ft | 143 kts | 39° |
| 2026-04-19 18:00 | 1.03552 | 104.04306 | 1986 ft | 142 kts | 41° |
| 2026-04-19 18:01 | 1.04284 | 104.04955 | 1725 ft | 138 kts | 42° |
| 2026-04-19 18:01 | 1.04991 | 104.05598 | 1529 ft | 137 kts | 43° |
| 2026-04-19 18:01 | 1.05696 | 104.06243 | 1414 ft | 139 kts | 43° |
| 2026-04-19 18:01 | 1.06412 | 104.06892 | 1303 ft | 140 kts | 42° |
| 2026-04-19 18:02 | 1.07127 | 104.07525 | 1103 ft | 136 kts | 41° |
| 2026-04-19 18:02 | 1.07829 | 104.08141 | 895 ft | 134 kts | 41° |
| 2026-04-19 18:02 | 1.08536 | 104.08756 | 690 ft | 134 kts | 41° |
| 2026-04-19 18:02 | 1.09244 | 104.09356 | 523 ft | 134 kts | 41° |
| 2026-04-19 18:03 | 1.09933 | 104.09972 | 335 ft | 133 kts | 43° |
| 2026-04-19 18:03 | 1.10621 | 104.10590 | 162 ft | 133 kts | 43° |
| 2026-04-19 18:03 | 1.11255 | 104.11153 | 137 ft | 98 kts | 41° |
| 2026-04-19 18:03 | 1.11574 | 104.11435 | 137 ft | 39 kts | 41° |
| 2026-04-19 18:04 | 1.11728 | 104.11572 | 137 ft | 25 kts | 40° |
| 2026-04-19 18:04 | 1.11843 | 104.11674 | 137 ft | 18 kts | 41° |
| 2026-04-19 18:04 | 1.11926 | 104.11703 | 137 ft | 10 kts | 334° |
| 2026-04-19 18:04 | 1.11970 | 104.11665 | 137 ft | 8 kts | 314° |
| 2026-04-19 18:05 | 1.12015 | 104.11618 | 137 ft | 10 kts | 311° |
| 2026-04-19 18:05 | 1.12067 | 104.11582 | 137 ft | 9 kts | 9° |
| 2026-04-19 18:05 | 1.12119 | 104.11612 | 137 ft | 9 kts | 40° |
| 2026-04-19 18:05 | 1.12170 | 104.11656 | 137 ft | 10 kts | 41° |
| 2026-04-19 18:06 | 1.12225 | 104.11704 | 137 ft | 9 kts | 31° |
| 2026-04-19 18:06 | 1.12283 | 104.11690 | 137 ft | 10 kts | 318° |
| 2026-04-19 18:06 | 1.12318 | 104.11651 | 137 ft | 7 kts | 311° |
| 2026-04-19 18:06 | 1.12325 | 104.11644 | 137 ft | 0 kts | 311° |